sensor_id;sensor_type;location;lat;lon;timestamp;P1;durP1;ratioP1;P2;durP2;ratioP2
76675;SDS011;69204;55.350;36.906;2023-07-29T00:01:21;10.18;;;3.92;;
76675;SDS011;69204;55.350;36.906;2023-07-29T00:06:22;9.33;;;3.80;;
76675;SDS011;69204;55.350;36.906;2023-07-29T00:11:23;6.53;;;3.78;;
76675;SDS011;69204;55.350;36.906;2023-07-29T00:16:23;8.05;;;4.15;;
76675;SDS011;69204;55.350;36.906;2023-07-29T00:21:24;9.70;;;4.50;;
76675;SDS011;69204;55.350;36.906;2023-07-29T00:26:25;8.35;;;4.03;;
76675;SDS011;69204;55.350;36.906;2023-07-29T00:31:29;11.57;;;4.27;;
76675;SDS011;69204;55.350;36.906;2023-07-29T00:36:30;10.88;;;5.10;;
76675;SDS011;69204;55.350;36.906;2023-07-29T00:41:30;12.27;;;5.23;;
76675;SDS011;69204;55.350;36.906;2023-07-29T00:46:33;10.10;;;5.10;;
76675;SDS011;69204;55.350;36.906;2023-07-29T00:51:35;8.53;;;5.40;;
76675;SDS011;69204;55.350;36.906;2023-07-29T00:56:36;10.88;;;5.80;;
76675;SDS011;69204;55.350;36.906;2023-07-29T01:01:37;10.38;;;5.20;;
76675;SDS011;69204;55.350;36.906;2023-07-29T01:18:21;12.93;;;5.17;;
76675;SDS011;69204;55.350;36.906;2023-07-29T01:23:25;9.55;;;5.47;;
76675;SDS011;69204;55.350;36.906;2023-07-29T01:28:35;12.95;;;5.30;;
76675;SDS011;69204;55.350;36.906;2023-07-29T01:33:39;8.40;;;5.10;;
76675;SDS011;69204;55.350;36.906;2023-07-29T01:38:43;9.35;;;5.28;;
76675;SDS011;69204;55.350;36.906;2023-07-29T01:43:45;9.50;;;5.23;;
76675;SDS011;69204;55.350;36.906;2023-07-29T01:48:47;10.20;;;4.85;;
76675;SDS011;69204;55.350;36.906;2023-07-29T01:53:48;14.67;;;5.40;;
76675;SDS011;69204;55.350;36.906;2023-07-29T01:58:49;8.00;;;4.83;;
76675;SDS011;69204;55.350;36.906;2023-07-29T02:03:50;13.52;;;5.95;;
76675;SDS011;69204;55.350;36.906;2023-07-29T02:08:55;9.13;;;5.00;;
76675;SDS011;69204;55.350;36.906;2023-07-29T02:13:56;12.68;;;5.38;;
76675;SDS011;69204;55.350;36.906;2023-07-29T02:18:58;9.38;;;5.50;;
76675;SDS011;69204;55.350;36.906;2023-07-29T02:23:58;10.07;;;5.50;;
76675;SDS011;69204;55.350;36.906;2023-07-29T02:28:59;11.35;;;5.63;;
76675;SDS011;69204;55.350;36.906;2023-07-29T02:34:00;15.23;;;5.40;;
76675;SDS011;69204;55.350;36.906;2023-07-29T02:39:01;11.15;;;5.60;;
76675;SDS011;69204;55.350;36.906;2023-07-29T02:44:02;14.83;;;5.83;;
76675;SDS011;69204;55.350;36.906;2023-07-29T02:49:03;15.20;;;6.18;;
76675;SDS011;69204;55.350;36.906;2023-07-29T02:54:04;11.43;;;6.17;;
76675;SDS011;69204;55.350;36.906;2023-07-29T02:59:05;13.00;;;6.30;;
76675;SDS011;69204;55.350;36.906;2023-07-29T03:04:06;12.67;;;6.50;;
76675;SDS011;69204;55.350;36.906;2023-07-29T03:09:07;13.83;;;6.73;;
76675;SDS011;69204;55.350;36.906;2023-07-29T03:14:08;11.38;;;6.50;;
76675;SDS011;69204;55.350;36.906;2023-07-29T03:19:09;11.00;;;6.33;;
76675;SDS011;69204;55.350;36.906;2023-07-29T03:24:11;8.93;;;5.57;;
76675;SDS011;69204;55.350;36.906;2023-07-29T03:29:12;10.07;;;5.77;;
76675;SDS011;69204;55.350;36.906;2023-07-29T03:34:12;10.57;;;5.47;;
76675;SDS011;69204;55.350;36.906;2023-07-29T03:39:14;10.00;;;6.37;;
76675;SDS011;69204;55.350;36.906;2023-07-29T03:44:15;8.98;;;4.90;;
76675;SDS011;69204;55.350;36.906;2023-07-29T03:49:16;11.10;;;5.13;;
76675;SDS011;69204;55.350;36.906;2023-07-29T03:54:17;7.40;;;4.63;;
76675;SDS011;69204;55.350;36.906;2023-07-29T03:59:18;8.68;;;4.13;;
76675;SDS011;69204;55.350;36.906;2023-07-29T04:04:19;9.13;;;4.23;;
76675;SDS011;69204;55.350;36.906;2023-07-29T04:09:19;9.65;;;4.05;;
76675;SDS011;69204;55.350;36.906;2023-07-29T04:14:20;8.60;;;4.13;;
76675;SDS011;69204;55.350;36.906;2023-07-29T04:19:21;8.25;;;3.97;;
76675;SDS011;69204;55.350;36.906;2023-07-29T04:24:22;10.30;;;5.33;;
76675;SDS011;69204;55.350;36.906;2023-07-29T04:29:23;8.63;;;4.45;;
76675;SDS011;69204;55.350;36.906;2023-07-29T04:34:24;8.07;;;4.47;;
76675;SDS011;69204;55.350;36.906;2023-07-29T04:39:26;8.33;;;3.77;;
76675;SDS011;69204;55.350;36.906;2023-07-29T04:44:27;7.03;;;3.60;;
76675;SDS011;69204;55.350;36.906;2023-07-29T04:49:28;5.93;;;3.50;;
76675;SDS011;69204;55.350;36.906;2023-07-29T04:54:29;6.90;;;3.80;;
76675;SDS011;69204;55.350;36.906;2023-07-29T04:59:30;12.13;;;3.60;;
76675;SDS011;69204;55.350;36.906;2023-07-29T05:04:30;9.70;;;3.40;;
76675;SDS011;69204;55.350;36.906;2023-07-29T05:09:32;14.43;;;7.55;;
76675;SDS011;69204;55.350;36.906;2023-07-29T05:14:32;7.80;;;4.17;;
76675;SDS011;69204;55.350;36.906;2023-07-29T05:19:33;18.80;;;9.02;;
76675;SDS011;69204;55.350;36.906;2023-07-29T05:24:34;9.03;;;3.63;;
76675;SDS011;69204;55.350;36.906;2023-07-29T05:29:35;6.95;;;3.42;;
76675;SDS011;69204;55.350;36.906;2023-07-29T05:34:36;7.70;;;3.00;;
76675;SDS011;69204;55.350;36.906;2023-07-29T05:39:37;8.75;;;3.30;;
76675;SDS011;69204;55.350;36.906;2023-07-29T05:44:38;7.83;;;3.80;;
76675;SDS011;69204;55.350;36.906;2023-07-29T05:49:39;7.05;;;3.25;;
76675;SDS011;69204;55.350;36.906;2023-07-29T05:54:40;6.07;;;3.07;;
76675;SDS011;69204;55.350;36.906;2023-07-29T05:59:43;10.23;;;3.38;;
76675;SDS011;69204;55.350;36.906;2023-07-29T06:04:43;6.77;;;3.23;;
76675;SDS011;69204;55.350;36.906;2023-07-29T06:09:44;7.55;;;3.28;;
76675;SDS011;69204;55.350;36.906;2023-07-29T06:14:45;8.73;;;3.57;;
76675;SDS011;69204;55.350;36.906;2023-07-29T06:19:46;5.35;;;3.20;;
76675;SDS011;69204;55.350;36.906;2023-07-29T06:24:47;9.50;;;3.72;;
76675;SDS011;69204;55.350;36.906;2023-07-29T06:29:48;5.27;;;3.07;;
76675;SDS011;69204;55.350;36.906;2023-07-29T06:34:49;6.03;;;3.08;;
76675;SDS011;69204;55.350;36.906;2023-07-29T06:39:52;7.47;;;3.00;;
76675;SDS011;69204;55.350;36.906;2023-07-29T06:44:53;5.97;;;2.72;;
76675;SDS011;69204;55.350;36.906;2023-07-29T06:49:54;7.73;;;3.00;;
76675;SDS011;69204;55.350;36.906;2023-07-29T06:54:58;6.78;;;3.00;;
76675;SDS011;69204;55.350;36.906;2023-07-29T06:59:59;5.00;;;2.70;;
76675;SDS011;69204;55.350;36.906;2023-07-29T07:05:00;5.63;;;2.70;;
76675;SDS011;69204;55.350;36.906;2023-07-29T07:10:01;5.70;;;3.05;;
76675;SDS011;69204;55.350;36.906;2023-07-29T07:15:04;6.87;;;2.90;;
76675;SDS011;69204;55.350;36.906;2023-07-29T07:20:06;5.10;;;2.55;;
76675;SDS011;69204;55.350;36.906;2023-07-29T07:25:07;6.15;;;2.85;;
76675;SDS011;69204;55.350;36.906;2023-07-29T07:35:39;8.38;;;2.63;;
76675;SDS011;69204;55.350;36.906;2023-07-29T07:40:52;6.93;;;3.00;;
76675;SDS011;69204;55.350;36.906;2023-07-29T07:46:01;4.95;;;2.67;;
76675;SDS011;69204;55.350;36.906;2023-07-29T07:51:12;6.65;;;2.75;;
76675;SDS011;69204;55.350;36.906;2023-07-29T07:56:23;5.77;;;2.37;;
76675;SDS011;69204;55.350;36.906;2023-07-29T08:01:24;6.18;;;3.15;;
76675;SDS011;69204;55.350;36.906;2023-07-29T08:06:25;4.93;;;2.90;;
76675;SDS011;69204;55.350;36.906;2023-07-29T08:11:27;6.45;;;3.00;;
76675;SDS011;69204;55.350;36.906;2023-07-29T08:16:28;4.60;;;2.92;;
76675;SDS011;69204;55.350;36.906;2023-07-29T08:21:29;5.00;;;2.60;;
76675;SDS011;69204;55.350;36.906;2023-07-29T08:26:30;5.00;;;2.63;;
76675;SDS011;69204;55.350;36.906;2023-07-29T08:31:31;7.53;;;3.33;;
76675;SDS011;69204;55.350;36.906;2023-07-29T08:36:34;7.57;;;2.50;;
76675;SDS011;69204;55.350;36.906;2023-07-29T08:41:42;4.85;;;2.45;;
76675;SDS011;69204;55.350;36.906;2023-07-29T08:47:02;5.73;;;2.63;;
76675;SDS011;69204;55.350;36.906;2023-07-29T08:52:06;9.32;;;3.22;;
76675;SDS011;69204;55.350;36.906;2023-07-29T08:57:19;5.37;;;3.10;;
76675;SDS011;69204;55.350;36.906;2023-07-29T09:02:23;5.93;;;2.72;;
76675;SDS011;69204;55.350;36.906;2023-07-29T09:07:24;5.68;;;2.60;;
76675;SDS011;69204;55.350;36.906;2023-07-29T09:12:26;5.67;;;3.30;;
76675;SDS011;69204;55.350;36.906;2023-07-29T09:17:30;5.25;;;2.78;;
76675;SDS011;69204;55.350;36.906;2023-07-29T09:22:32;6.23;;;3.03;;
76675;SDS011;69204;55.350;36.906;2023-07-29T09:27:33;11.93;;;3.00;;
76675;SDS011;69204;55.350;36.906;2023-07-29T09:32:39;5.82;;;2.67;;
76675;SDS011;69204;55.350;36.906;2023-07-29T09:37:41;5.30;;;3.07;;
76675;SDS011;69204;55.350;36.906;2023-07-29T09:42:49;7.20;;;2.97;;
76675;SDS011;69204;55.350;36.906;2023-07-29T09:47:52;5.60;;;2.77;;
76675;SDS011;69204;55.350;36.906;2023-07-29T09:52:55;6.80;;;2.70;;
76675;SDS011;69204;55.350;36.906;2023-07-29T09:57:59;5.45;;;2.90;;
76675;SDS011;69204;55.350;36.906;2023-07-29T10:03:08;11.83;;;3.50;;
76675;SDS011;69204;55.350;36.906;2023-07-29T10:08:09;21.33;;;11.30;;
76675;SDS011;69204;55.350;36.906;2023-07-29T10:13:12;6.67;;;2.80;;
76675;SDS011;69204;55.350;36.906;2023-07-29T10:18:13;5.30;;;2.90;;
76675;SDS011;69204;55.350;36.906;2023-07-29T10:23:15;7.88;;;2.85;;
76675;SDS011;69204;55.350;36.906;2023-07-29T10:28:18;4.50;;;2.50;;
76675;SDS011;69204;55.350;36.906;2023-07-29T10:33:21;5.10;;;2.53;;
76675;SDS011;69204;55.350;36.906;2023-07-29T10:38:23;7.67;;;3.20;;
76675;SDS011;69204;55.350;36.906;2023-07-29T10:43:32;4.75;;;2.70;;
76675;SDS011;69204;55.350;36.906;2023-07-29T10:53:38;5.97;;;2.90;;
76675;SDS011;69204;55.350;36.906;2023-07-29T10:58:41;6.00;;;2.83;;
76675;SDS011;69204;55.350;36.906;2023-07-29T11:04:00;6.90;;;2.83;;
76675;SDS011;69204;55.350;36.906;2023-07-29T11:09:05;6.25;;;2.75;;
76675;SDS011;69204;55.350;36.906;2023-07-29T11:14:41;5.70;;;2.85;;
76675;SDS011;69204;55.350;36.906;2023-07-29T11:19:43;6.10;;;2.70;;
76675;SDS011;69204;55.350;36.906;2023-07-29T11:24:45;5.78;;;2.88;;
76675;SDS011;69204;55.350;36.906;2023-07-29T11:29:47;6.50;;;2.83;;
76675;SDS011;69204;55.350;36.906;2023-07-29T11:34:48;5.68;;;3.05;;
76675;SDS011;69204;55.350;36.906;2023-07-29T11:39:49;6.38;;;3.15;;
76675;SDS011;69204;55.350;36.906;2023-07-29T11:44:51;7.33;;;3.60;;
76675;SDS011;69204;55.350;36.906;2023-07-29T11:49:52;8.15;;;4.20;;
76675;SDS011;69204;55.350;36.906;2023-07-29T11:54:54;5.73;;;2.97;;
76675;SDS011;69204;55.350;36.906;2023-07-29T11:59:55;8.85;;;2.85;;
76675;SDS011;69204;55.350;36.906;2023-07-29T12:04:56;6.95;;;2.92;;
76675;SDS011;69204;55.350;36.906;2023-07-29T12:09:58;5.70;;;3.07;;
76675;SDS011;69204;55.350;36.906;2023-07-29T12:14:59;7.00;;;2.85;;
76675;SDS011;69204;55.350;36.906;2023-07-29T12:20:01;8.20;;;3.30;;
76675;SDS011;69204;55.350;36.906;2023-07-29T12:25:04;5.80;;;2.70;;
76675;SDS011;69204;55.350;36.906;2023-07-29T12:30:06;5.82;;;2.58;;
76675;SDS011;69204;55.350;36.906;2023-07-29T12:35:10;5.77;;;3.00;;
76675;SDS011;69204;55.350;36.906;2023-07-29T12:40:24;5.20;;;3.03;;
76675;SDS011;69204;55.350;36.906;2023-07-29T12:45:26;8.00;;;3.20;;
76675;SDS011;69204;55.350;36.906;2023-07-29T12:50:27;7.45;;;3.63;;
76675;SDS011;69204;55.350;36.906;2023-07-29T12:55:29;8.60;;;2.95;;
76675;SDS011;69204;55.350;36.906;2023-07-29T13:00:30;4.27;;;2.53;;
76675;SDS011;69204;55.350;36.906;2023-07-29T13:05:31;6.25;;;3.00;;
76675;SDS011;69204;55.350;36.906;2023-07-29T13:10:32;6.63;;;2.83;;
76675;SDS011;69204;55.350;36.906;2023-07-29T13:15:33;4.97;;;2.50;;
76675;SDS011;69204;55.350;36.906;2023-07-29T13:20:34;7.30;;;3.30;;
76675;SDS011;69204;55.350;36.906;2023-07-29T13:25:37;6.07;;;2.90;;
76675;SDS011;69204;55.350;36.906;2023-07-29T13:30:39;4.80;;;2.55;;
76675;SDS011;69204;55.350;36.906;2023-07-29T13:35:40;4.70;;;2.97;;
76675;SDS011;69204;55.350;36.906;2023-07-29T13:40:41;8.10;;;2.97;;
76675;SDS011;69204;55.350;36.906;2023-07-29T13:45:43;6.68;;;2.60;;
76675;SDS011;69204;55.350;36.906;2023-07-29T13:50:45;4.90;;;2.70;;
76675;SDS011;69204;55.350;36.906;2023-07-29T13:55:46;5.97;;;2.88;;
76675;SDS011;69204;55.350;36.906;2023-07-29T14:00:47;5.77;;;2.93;;
76675;SDS011;69204;55.350;36.906;2023-07-29T14:05:48;5.55;;;2.60;;
76675;SDS011;69204;55.350;36.906;2023-07-29T14:10:49;6.63;;;2.65;;
76675;SDS011;69204;55.350;36.906;2023-07-29T14:15:50;4.80;;;2.50;;
76675;SDS011;69204;55.350;36.906;2023-07-29T14:20:51;7.22;;;3.33;;
76675;SDS011;69204;55.350;36.906;2023-07-29T14:25:52;7.13;;;2.93;;
76675;SDS011;69204;55.350;36.906;2023-07-29T14:30:55;5.25;;;2.50;;
76675;SDS011;69204;55.350;36.906;2023-07-29T14:35:56;4.90;;;2.80;;
76675;SDS011;69204;55.350;36.906;2023-07-29T14:40:57;5.43;;;2.40;;
76675;SDS011;69204;55.350;36.906;2023-07-29T14:45:58;6.20;;;2.25;;
76675;SDS011;69204;55.350;36.906;2023-07-29T14:50:59;4.90;;;2.90;;
76675;SDS011;69204;55.350;36.906;2023-07-29T14:56:00;7.22;;;2.83;;
76675;SDS011;69204;55.350;36.906;2023-07-29T15:01:01;3.80;;;2.13;;
76675;SDS011;69204;55.350;36.906;2023-07-29T15:06:02;6.37;;;2.77;;
76675;SDS011;69204;55.350;36.906;2023-07-29T15:11:03;7.30;;;2.45;;
76675;SDS011;69204;55.350;36.906;2023-07-29T15:16:04;6.23;;;2.53;;
76675;SDS011;69204;55.350;36.906;2023-07-29T15:21:05;5.57;;;2.38;;
76675;SDS011;69204;55.350;36.906;2023-07-29T15:26:07;6.03;;;2.60;;
76675;SDS011;69204;55.350;36.906;2023-07-29T15:31:08;6.57;;;3.17;;
76675;SDS011;69204;55.350;36.906;2023-07-29T15:36:12;6.13;;;2.40;;
76675;SDS011;69204;55.350;36.906;2023-07-29T15:41:19;5.10;;;2.60;;
76675;SDS011;69204;55.350;36.906;2023-07-29T15:46:22;14.18;;;7.68;;
76675;SDS011;69204;55.350;36.906;2023-07-29T15:51:24;8.57;;;3.83;;
76675;SDS011;69204;55.350;36.906;2023-07-29T15:56:26;8.10;;;3.20;;
76675;SDS011;69204;55.350;36.906;2023-07-29T16:01:31;7.35;;;3.08;;
76675;SDS011;69204;55.350;36.906;2023-07-29T16:06:32;6.03;;;2.17;;
76675;SDS011;69204;55.350;36.906;2023-07-29T16:11:33;8.75;;;3.22;;
76675;SDS011;69204;55.350;36.906;2023-07-29T16:16:34;7.68;;;2.40;;
76675;SDS011;69204;55.350;36.906;2023-07-29T16:21:35;7.20;;;3.10;;
76675;SDS011;69204;55.350;36.906;2023-07-29T16:26:36;7.25;;;2.65;;
76675;SDS011;69204;55.350;36.906;2023-07-29T16:31:38;6.20;;;2.90;;
76675;SDS011;69204;55.350;36.906;2023-07-29T16:36:39;5.47;;;2.97;;
76675;SDS011;69204;55.350;36.906;2023-07-29T16:41:40;19.90;;;13.27;;
76675;SDS011;69204;55.350;36.906;2023-07-29T16:46:41;12.83;;;8.53;;
76675;SDS011;69204;55.350;36.906;2023-07-29T16:51:43;11.25;;;6.90;;
76675;SDS011;69204;55.350;36.906;2023-07-29T16:56:45;11.43;;;7.13;;
76675;SDS011;69204;55.350;36.906;2023-07-29T17:01:48;12.38;;;5.55;;
76675;SDS011;69204;55.350;36.906;2023-07-29T17:06:49;9.57;;;5.68;;
76675;SDS011;69204;55.350;36.906;2023-07-29T17:11:50;15.50;;;7.37;;
76675;SDS011;69204;55.350;36.906;2023-07-29T17:16:51;13.27;;;5.50;;
76675;SDS011;69204;55.350;36.906;2023-07-29T17:21:52;8.87;;;4.20;;
76675;SDS011;69204;55.350;36.906;2023-07-29T17:26:53;11.15;;;4.55;;
76675;SDS011;69204;55.350;36.906;2023-07-29T17:31:54;17.95;;;8.60;;
76675;SDS011;69204;55.350;36.906;2023-07-29T17:36:55;13.70;;;6.77;;
76675;SDS011;69204;55.350;36.906;2023-07-29T17:41:56;10.00;;;5.65;;
76675;SDS011;69204;55.350;36.906;2023-07-29T17:46:57;32.77;;;19.93;;
76675;SDS011;69204;55.350;36.906;2023-07-29T17:51:58;29.27;;;15.90;;
76675;SDS011;69204;55.350;36.906;2023-07-29T17:56:59;31.38;;;18.63;;
76675;SDS011;69204;55.350;36.906;2023-07-29T18:02:00;58.33;;;31.00;;
76675;SDS011;69204;55.350;36.906;2023-07-29T18:07:01;60.05;;;32.08;;
76675;SDS011;69204;55.350;36.906;2023-07-29T18:12:03;60.63;;;33.37;;
76675;SDS011;69204;55.350;36.906;2023-07-29T18:17:05;40.65;;;20.73;;
76675;SDS011;69204;55.350;36.906;2023-07-29T18:22:06;24.75;;;13.20;;
76675;SDS011;69204;55.350;36.906;2023-07-29T18:27:07;28.80;;;14.53;;
76675;SDS011;69204;55.350;36.906;2023-07-29T18:32:08;23.83;;;12.48;;
76675;SDS011;69204;55.350;36.906;2023-07-29T18:37:09;44.03;;;23.97;;
76675;SDS011;69204;55.350;36.906;2023-07-29T18:42:10;105.43;;;53.90;;
76675;SDS011;69204;55.350;36.906;2023-07-29T18:47:11;46.50;;;21.95;;
76675;SDS011;69204;55.350;36.906;2023-07-29T18:52:14;35.77;;;19.50;;
76675;SDS011;69204;55.350;36.906;2023-07-29T18:57:15;62.78;;;37.92;;
76675;SDS011;69204;55.350;36.906;2023-07-29T19:02:17;80.03;;;44.63;;
76675;SDS011;69204;55.350;36.906;2023-07-29T19:07:18;53.22;;;25.77;;
76675;SDS011;69204;55.350;36.906;2023-07-29T19:12:21;63.85;;;38.58;;
76675;SDS011;69204;55.350;36.906;2023-07-29T19:17:23;61.93;;;34.40;;
76675;SDS011;69204;55.350;36.906;2023-07-29T19:22:24;48.63;;;27.02;;
76675;SDS011;69204;55.350;36.906;2023-07-29T19:27:25;50.27;;;28.07;;
76675;SDS011;69204;55.350;36.906;2023-07-29T19:32:26;57.75;;;33.05;;
76675;SDS011;69204;55.350;36.906;2023-07-29T19:37:27;72.50;;;38.42;;
76675;SDS011;69204;55.350;36.906;2023-07-29T19:42:28;68.73;;;38.50;;
76675;SDS011;69204;55.350;36.906;2023-07-29T19:47:29;70.13;;;40.47;;
76675;SDS011;69204;55.350;36.906;2023-07-29T19:52:31;74.33;;;41.93;;
76675;SDS011;69204;55.350;36.906;2023-07-29T19:57:32;89.15;;;47.55;;
76675;SDS011;69204;55.350;36.906;2023-07-29T20:02:35;96.75;;;51.58;;
76675;SDS011;69204;55.350;36.906;2023-07-29T20:07:36;89.17;;;47.00;;
76675;SDS011;69204;55.350;36.906;2023-07-29T20:12:37;92.38;;;47.67;;
76675;SDS011;69204;55.350;36.906;2023-07-29T20:17:38;96.20;;;51.50;;
76675;SDS011;69204;55.350;36.906;2023-07-29T20:22:43;127.57;;;69.50;;
76675;SDS011;69204;55.350;36.906;2023-07-29T20:27:44;88.32;;;47.65;;
76675;SDS011;69204;55.350;36.906;2023-07-29T20:32:46;101.97;;;47.93;;
76675;SDS011;69204;55.350;36.906;2023-07-29T20:37:47;94.65;;;47.72;;
76675;SDS011;69204;55.350;36.906;2023-07-29T20:42:49;85.93;;;45.70;;
76675;SDS011;69204;55.350;36.906;2023-07-29T20:47:50;76.88;;;39.67;;
76675;SDS011;69204;55.350;36.906;2023-07-29T20:52:51;62.35;;;33.97;;
76675;SDS011;69204;55.350;36.906;2023-07-29T20:57:52;82.43;;;34.37;;
76675;SDS011;69204;55.350;36.906;2023-07-29T21:02:54;52.28;;;30.80;;
76675;SDS011;69204;55.350;36.906;2023-07-29T21:07:55;63.57;;;31.63;;
76675;SDS011;69204;55.350;36.906;2023-07-29T21:12:56;63.15;;;34.33;;
76675;SDS011;69204;55.350;36.906;2023-07-29T21:17:57;51.72;;;31.05;;
76675;SDS011;69204;55.350;36.906;2023-07-29T21:22:58;70.27;;;35.83;;
76675;SDS011;69204;55.350;36.906;2023-07-29T21:27:59;65.40;;;36.15;;
76675;SDS011;69204;55.350;36.906;2023-07-29T21:33:00;68.60;;;32.40;;
76675;SDS011;69204;55.350;36.906;2023-07-29T21:38:01;65.53;;;33.17;;
76675;SDS011;69204;55.350;36.906;2023-07-29T21:43:02;67.57;;;35.10;;
76675;SDS011;69204;55.350;36.906;2023-07-29T21:48:04;61.00;;;35.40;;
76675;SDS011;69204;55.350;36.906;2023-07-29T21:53:05;64.10;;;34.90;;
76675;SDS011;69204;55.350;36.906;2023-07-29T21:58:06;81.77;;;40.33;;
76675;SDS011;69204;55.350;36.906;2023-07-29T22:03:07;86.70;;;39.95;;
76675;SDS011;69204;55.350;36.906;2023-07-29T22:08:08;79.78;;;39.80;;
76675;SDS011;69204;55.350;36.906;2023-07-29T22:13:09;83.93;;;41.80;;
76675;SDS011;69204;55.350;36.906;2023-07-29T22:18:10;75.72;;;41.10;;
76675;SDS011;69204;55.350;36.906;2023-07-29T22:23:14;82.93;;;43.60;;
76675;SDS011;69204;55.350;36.906;2023-07-29T22:28:15;89.97;;;42.92;;
76675;SDS011;69204;55.350;36.906;2023-07-29T22:33:16;79.13;;;41.15;;
76675;SDS011;69204;55.350;36.906;2023-07-29T22:38:17;88.80;;;43.53;;
76675;SDS011;69204;55.350;36.906;2023-07-29T22:43:18;86.65;;;44.15;;
76675;SDS011;69204;55.350;36.906;2023-07-29T22:48:19;86.20;;;44.20;;
76675;SDS011;69204;55.350;36.906;2023-07-29T22:53:21;84.95;;;46.88;;
76675;SDS011;69204;55.350;36.906;2023-07-29T22:58:22;94.60;;;51.20;;
76675;SDS011;69204;55.350;36.906;2023-07-29T23:03:23;92.20;;;49.20;;
76675;SDS011;69204;55.350;36.906;2023-07-29T23:08:25;81.80;;;44.88;;
76675;SDS011;69204;55.350;36.906;2023-07-29T23:13:26;82.33;;;44.83;;
76675;SDS011;69204;55.350;36.906;2023-07-29T23:18:27;74.25;;;40.13;;
76675;SDS011;69204;55.350;36.906;2023-07-29T23:23:28;76.88;;;41.63;;
76675;SDS011;69204;55.350;36.906;2023-07-29T23:28:29;68.75;;;36.92;;
76675;SDS011;69204;55.350;36.906;2023-07-29T23:33:30;86.43;;;44.45;;
76675;SDS011;69204;55.350;36.906;2023-07-29T23:38:31;86.53;;;43.20;;
76675;SDS011;69204;55.350;36.906;2023-07-29T23:43:32;100.57;;;47.13;;
76675;SDS011;69204;55.350;36.906;2023-07-29T23:48:33;69.10;;;39.10;;
76675;SDS011;69204;55.350;36.906;2023-07-29T23:53:34;78.68;;;40.58;;
76675;SDS011;69204;55.350;36.906;2023-07-29T23:58:35;77.45;;;40.30;;
